Terminal Aerodrome Forecast
Issued by NWS Cleveland, OH

Home | Current Version | Previous Version | Text Only | Print | Product List | Glossary Off
Versions: 1 2 3 4 5 6 7 8 9 10 11 12 13 14 15 16 17 18 19 20

000
FTUS41 KCLE 012333
TAFYNG
TAF
KYNG 012333Z 0200/0224 28003KT P6SM SCT050 BKN200
     FM020900 20003KT 4SM BR SKC
     FM021400 27007KT P6SM SCT045=

USA.gov is the U.S. government's official web portal to all federal, state and local government web resources and services.